createdAt,value
2018-09-25T00:02:33.108Z,17.00
2018-09-25T00:05:07.156Z,16.90
2018-09-25T00:07:41.270Z,16.90
2018-09-25T00:10:15.248Z,16.90
2018-09-25T00:12:49.391Z,16.90
2018-09-25T00:15:23.467Z,16.90
2018-09-25T00:17:57.463Z,16.80
2018-09-25T00:20:31.408Z,16.90
2018-09-25T00:23:05.333Z,16.90
2018-09-25T00:25:39.307Z,16.90
2018-09-25T00:28:13.441Z,16.90
2018-09-25T00:30:48.485Z,16.90
2018-09-25T00:33:22.409Z,16.90
2018-09-25T00:35:56.499Z,16.90
2018-09-25T00:38:30.661Z,16.80
2018-09-25T00:41:04.786Z,16.80
2018-09-25T00:43:40.255Z,16.70
2018-09-25T00:46:15.404Z,16.80
2018-09-25T00:48:49.510Z,16.70
2018-09-25T00:51:23.701Z,16.70
2018-09-25T00:53:58.267Z,16.70
2018-09-25T00:56:33.222Z,16.60
2018-09-25T00:59:07.428Z,16.60
2018-09-25T01:01:42.440Z,16.60
2018-09-25T01:04:17.249Z,16.60
2018-09-25T01:06:51.498Z,16.50
2018-09-25T01:09:26.124Z,16.50
2018-09-25T01:12:00.867Z,16.50
2018-09-25T01:14:40.097Z,16.50
2018-09-25T01:17:15.174Z,16.50
2018-09-25T01:19:49.357Z,16.50
2018-09-25T01:22:23.320Z,16.50
2018-09-25T01:24:57.390Z,16.40
2018-09-25T01:27:31.390Z,16.40
2018-09-25T01:30:05.425Z,16.30
2018-09-25T01:32:39.495Z,16.30
2018-09-25T01:35:13.548Z,16.30
2018-09-25T01:37:47.396Z,16.30
2018-09-25T01:40:21.785Z,16.30
2018-09-25T01:42:56.397Z,16.30
2018-09-25T01:45:30.709Z,16.30
2018-09-25T01:48:04.696Z,16.20
2018-09-25T01:50:38.659Z,16.20
2018-09-25T01:53:12.701Z,16.20
2018-09-25T01:55:46.889Z,16.20
2018-09-25T01:58:20.885Z,16.30
2018-09-25T02:00:55.495Z,16.20
2018-09-25T02:03:29.429Z,16.20
2018-09-25T02:06:07.420Z,16.20
2018-09-25T02:08:41.907Z,16.30
2018-09-25T02:11:16.026Z,16.30
2018-09-25T02:13:49.924Z,16.30
2018-09-25T02:16:24.827Z,16.30
2018-09-25T02:18:59.002Z,16.30
2018-09-25T02:21:33.306Z,16.30
2018-09-25T02:24:07.905Z,16.20
2018-09-25T02:26:42.017Z,16.20
2018-09-25T02:29:16.034Z,16.20
2018-09-25T02:31:50.943Z,16.30
2018-09-25T02:34:25.853Z,16.30
2018-09-25T02:36:59.959Z,16.30
2018-09-25T02:39:35.015Z,16.30
2018-09-25T02:42:13.261Z,16.30
2018-09-25T02:44:48.009Z,16.30
2018-09-25T02:47:21.922Z,16.30
2018-09-25T02:49:56.132Z,16.30
2018-09-25T02:52:30.180Z,16.20
2018-09-25T02:55:04.252Z,16.20
2018-09-25T02:57:38.456Z,16.20
2018-09-25T03:00:14.585Z,16.20
2018-09-25T03:02:48.572Z,16.20
2018-09-25T03:05:22.592Z,16.20
2018-09-25T03:07:56.807Z,16.20
2018-09-25T03:10:31.469Z,16.20
2018-09-25T03:13:06.462Z,16.20
2018-09-25T03:15:43.336Z,16.20
2018-09-25T03:18:17.473Z,16.20
2018-09-25T03:20:51.522Z,16.20
2018-09-25T03:23:25.563Z,16.20
2018-09-25T03:25:59.572Z,16.20
2018-09-25T03:28:33.536Z,16.20
2018-09-25T03:31:07.555Z,16.20
2018-09-25T03:33:41.499Z,16.20
2018-09-25T03:36:15.796Z,16.20
2018-09-25T03:38:50.968Z,16.20
2018-09-25T03:41:26.164Z,16.20
2018-09-25T03:44:00.300Z,16.20
2018-09-25T03:46:34.283Z,16.20
2018-09-25T03:49:08.421Z,16.20
2018-09-25T03:51:42.584Z,16.20
2018-09-25T03:54:17.806Z,16.20
2018-09-25T03:56:53.828Z,16.20
2018-09-25T03:59:28.901Z,16.20
2018-09-25T04:02:02.909Z,16.30
2018-09-25T04:04:38.760Z,16.30
2018-09-25T04:07:13.810Z,16.30
2018-09-25T04:09:48.572Z,16.30
2018-09-25T04:12:22.653Z,16.30
2018-09-25T04:14:58.220Z,16.40
2018-09-25T04:17:32.383Z,16.30
2018-09-25T04:20:09.633Z,16.30
2018-09-25T04:22:43.760Z,16.30
2018-09-25T04:25:19.445Z,16.30
2018-09-25T04:27:56.008Z,16.20
2018-09-25T04:30:30.053Z,16.20
2018-09-25T04:33:04.224Z,16.20
2018-09-25T04:35:39.263Z,16.20
2018-09-25T04:38:13.400Z,16.20
2018-09-25T04:40:47.313Z,16.20
2018-09-25T04:43:22.608Z,16.20
2018-09-25T04:45:58.992Z,16.20
2018-09-25T04:48:33.876Z,16.20
2018-09-25T04:51:11.111Z,16.10
2018-09-25T04:53:45.148Z,16.00
2018-09-25T04:56:19.252Z,16.00
2018-09-25T04:58:53.165Z,16.00
2018-09-25T05:01:27.248Z,16.00
2018-09-25T05:04:01.125Z,16.00
2018-09-25T05:06:35.290Z,16.00
2018-09-25T05:09:11.603Z,16.00
2018-09-25T05:11:45.639Z,15.70
2018-09-25T05:14:19.519Z,15.90
2018-09-25T05:16:53.493Z,15.90
2018-09-25T05:19:27.513Z,15.90
2018-09-25T05:22:01.444Z,15.90
2018-09-25T05:24:37.780Z,15.80
2018-09-25T05:27:12.780Z,15.80
2018-09-25T05:29:46.873Z,15.90
2018-09-25T05:32:21.052Z,15.80
2018-09-25T05:34:54.948Z,15.80
2018-09-25T05:37:29.014Z,15.80
2018-09-25T05:40:03.138Z,15.80
2018-09-25T05:42:37.215Z,15.80
2018-09-25T05:45:13.627Z,15.70
2018-09-25T05:47:53.589Z,15.80
2018-09-25T05:50:30.390Z,15.80
2018-09-25T05:53:07.888Z,15.80
2018-09-25T05:55:44.438Z,15.70
2018-09-25T05:58:19.189Z,15.70
2018-09-25T06:00:54.387Z,15.80
2018-09-25T06:03:29.757Z,15.90
2018-09-25T06:06:05.192Z,15.90
2018-09-25T06:08:42.882Z,15.90
2018-09-25T06:11:29.573Z,16.00
2018-09-25T06:14:10.979Z,16.00
2018-09-25T06:16:46.084Z,16.00
2018-09-25T06:19:20.871Z,16.00
2018-09-25T06:21:56.133Z,16.00
2018-09-25T06:24:35.507Z,16.00
2018-09-25T06:27:09.620Z,16.00
2018-09-25T06:29:43.606Z,16.10
2018-09-25T06:32:17.629Z,16.10
2018-09-25T06:34:51.957Z,16.10
2018-09-25T06:37:26.103Z,16.20
2018-09-25T06:40:00.045Z,16.20
2018-09-25T06:42:33.960Z,16.30
2018-09-25T06:45:08.321Z,16.30
2018-09-25T06:47:42.495Z,16.30
2018-09-25T06:50:16.676Z,16.30
2018-09-25T06:52:50.844Z,16.40
2018-09-25T06:55:24.969Z,16.50
2018-09-25T06:57:58.884Z,16.60
2018-09-25T07:00:32.945Z,16.70
2018-09-25T07:03:06.941Z,16.80
2018-09-25T07:05:41.013Z,17.00
2018-09-25T07:08:15.035Z,17.30
2018-09-25T07:10:49.161Z,17.30
2018-09-25T07:13:23.121Z,17.30
2018-09-25T07:15:57.115Z,17.30
2018-09-25T07:18:31.264Z,17.30
2018-09-25T07:21:05.773Z,17.30
2018-09-25T07:23:39.867Z,17.50
2018-09-25T07:26:17.866Z,17.70
2018-09-25T07:28:51.997Z,18.10
2018-09-25T07:31:26.986Z,18.20
2018-09-25T07:34:01.072Z,18.50
2018-09-25T07:36:35.390Z,18.60
2018-09-25T07:39:10.606Z,18.70
2018-09-25T07:41:44.777Z,18.60
2018-09-25T07:44:18.793Z,18.90
2018-09-25T07:46:52.855Z,19.00
2018-09-25T07:49:26.929Z,19.20
2018-09-25T07:52:01.124Z,19.30
2018-09-25T07:54:35.233Z,19.40
2018-09-25T07:57:09.272Z,19.40
2018-09-25T07:59:43.246Z,19.40
2018-09-25T08:02:17.241Z,19.60
2018-09-25T08:04:51.148Z,19.60
2018-09-25T08:07:25.139Z,19.40
2018-09-25T08:09:59.230Z,19.60
2018-09-25T08:12:33.344Z,19.50
2018-09-25T08:15:07.352Z,19.50
2018-09-25T08:17:41.461Z,19.30
2018-09-25T08:20:15.603Z,19.20
2018-09-25T08:22:49.708Z,19.00
2018-09-25T08:25:23.829Z,19.20
2018-09-25T08:27:57.734Z,19.10
2018-09-25T08:30:31.596Z,19.30
2018-09-25T08:33:05.552Z,19.30
2018-09-25T08:35:39.612Z,19.50
2018-09-25T08:38:13.510Z,19.80
2018-09-25T08:40:47.645Z,20.20
2018-09-25T08:43:21.820Z,20.70
2018-09-25T08:45:55.807Z,21.00
2018-09-25T08:48:29.852Z,21.30
2018-09-25T08:51:03.860Z,21.40
2018-09-25T08:53:37.908Z,21.60
2018-09-25T08:56:11.962Z,21.60
2018-09-25T08:58:45.816Z,21.70
2018-09-25T09:01:19.749Z,21.70
2018-09-25T09:03:53.691Z,21.70
2018-09-25T09:06:27.755Z,21.70
2018-09-25T09:09:01.758Z,21.70
2018-09-25T09:11:35.741Z,21.80
2018-09-25T09:14:09.702Z,21.90
2018-09-25T09:16:43.810Z,22.00
2018-09-25T09:19:17.812Z,22.00
2018-09-25T09:21:51.878Z,22.10
2018-09-25T09:24:25.945Z,22.10
2018-09-25T09:26:59.938Z,22.20
2018-09-25T09:29:33.945Z,22.30
2018-09-25T09:32:07.956Z,22.40
2018-09-25T09:34:42.133Z,22.40
2018-09-25T09:37:16.232Z,22.50
2018-09-25T09:39:50.308Z,22.70
2018-09-25T09:42:24.425Z,22.80
2018-09-25T09:44:58.437Z,22.70
2018-09-25T09:47:32.497Z,22.80
2018-09-25T09:50:06.365Z,22.80
2018-09-25T09:52:40.296Z,23.00
2018-09-25T09:55:14.217Z,23.20
2018-09-25T09:57:48.094Z,23.30
2018-09-25T10:00:22.077Z,23.50
2018-09-25T10:02:56.180Z,23.80
2018-09-25T10:05:30.233Z,24.00
2018-09-25T10:08:04.349Z,24.10
2018-09-25T10:10:38.417Z,24.20
2018-09-25T10:13:12.649Z,24.40
2018-09-25T10:15:46.737Z,24.70
2018-09-25T10:18:20.638Z,24.90
2018-09-25T10:20:54.721Z,25.10
2018-09-25T10:23:28.941Z,25.30
2018-09-25T10:26:02.912Z,25.40
2018-09-25T10:28:36.817Z,25.50
2018-09-25T10:31:10.834Z,25.60
2018-09-25T10:33:45.046Z,25.80
2018-09-25T10:36:19.185Z,25.70
2018-09-25T10:38:53.120Z,25.70
2018-09-25T10:41:27.057Z,25.80
2018-09-25T10:44:01.011Z,26.00
2018-09-25T10:46:35.910Z,26.10
2018-09-25T10:49:10.009Z,26.40
2018-09-25T10:51:43.999Z,26.60
2018-09-25T10:54:18.404Z,26.80
2018-09-25T10:56:52.370Z,26.80
2018-09-25T10:59:26.405Z,27.00
2018-09-25T11:02:00.396Z,26.80
2018-09-25T11:04:34.290Z,26.90
2018-09-25T11:07:08.189Z,27.10
2018-09-25T11:09:42.089Z,27.00
2018-09-25T11:12:16.004Z,27.20
2018-09-25T11:14:50.085Z,27.30
2018-09-25T11:17:24.149Z,27.20
2018-09-25T11:19:58.108Z,27.20
2018-09-25T11:22:32.252Z,27.20
2018-09-25T11:25:06.375Z,27.30
2018-09-25T11:27:40.372Z,27.30
2018-09-25T11:30:14.321Z,27.40
2018-09-25T11:32:48.361Z,27.50
2018-09-25T11:35:22.272Z,27.50
2018-09-25T11:37:56.345Z,27.50
2018-09-25T11:40:30.240Z,27.50
2018-09-25T11:43:04.246Z,27.70
2018-09-25T11:45:39.017Z,27.80
2018-09-25T11:48:13.035Z,27.80
2018-09-25T11:50:47.037Z,27.90
2018-09-25T11:53:21.058Z,27.90
2018-09-25T11:55:55.139Z,27.80
2018-09-25T11:58:29.230Z,27.80
2018-09-25T12:01:03.421Z,27.90
2018-09-25T12:03:37.420Z,28.00
2018-09-25T12:06:12.543Z,28.00
2018-09-25T12:08:46.683Z,28.00
2018-09-25T12:11:20.743Z,28.00
2018-09-25T12:13:54.850Z,28.10
2018-09-25T12:16:28.873Z,28.10
2018-09-25T12:19:02.941Z,28.00
2018-09-25T12:21:37.089Z,28.00
2018-09-25T12:24:11.099Z,27.70
2018-09-25T12:26:44.988Z,27.30
2018-09-25T12:29:18.947Z,27.30
2018-09-25T12:31:52.891Z,27.30
2018-09-25T12:34:26.888Z,27.40
2018-09-25T12:37:02.231Z,27.40
2018-09-25T12:39:36.157Z,27.50
2018-09-25T12:42:10.716Z,27.50
2018-09-25T12:44:44.749Z,27.60
2018-09-25T12:47:18.790Z,27.70
2018-09-25T12:49:52.796Z,27.80
2018-09-25T12:52:26.853Z,28.00
2018-09-25T12:55:00.953Z,28.20
2018-09-25T12:57:34.804Z,28.20
2018-09-25T13:00:09.019Z,28.30
2018-09-25T13:02:42.970Z,28.30
2018-09-25T13:05:16.944Z,28.30
2018-09-25T13:07:50.955Z,28.30
2018-09-25T13:10:24.980Z,28.30
2018-09-25T13:12:59.269Z,28.20
2018-09-25T13:15:33.144Z,28.30
2018-09-25T13:18:07.380Z,28.40
2018-09-25T13:20:41.326Z,28.50
2018-09-25T13:23:17.132Z,28.50
2018-09-25T13:25:51.231Z,28.60
2018-09-25T13:28:25.128Z,28.60
2018-09-25T13:30:59.214Z,28.50
2018-09-25T13:33:33.145Z,28.40
2018-09-25T13:36:07.107Z,28.30
2018-09-25T13:38:41.143Z,28.30
2018-09-25T13:41:15.108Z,28.30
2018-09-25T13:43:49.053Z,28.30
2018-09-25T13:46:23.142Z,28.30
2018-09-25T13:48:58.120Z,28.30
2018-09-25T13:51:32.292Z,28.30
2018-09-25T13:54:06.357Z,28.20
2018-09-25T13:56:40.411Z,28.30
2018-09-25T13:59:15.416Z,28.20
2018-09-25T14:01:49.505Z,28.20
2018-09-25T14:04:23.792Z,28.10
2018-09-25T14:06:57.866Z,28.10
2018-09-25T14:09:31.865Z,28.00
2018-09-25T14:12:05.782Z,27.80
2018-09-25T14:14:39.737Z,27.80
2018-09-25T14:17:13.734Z,27.80
2018-09-25T14:19:47.788Z,27.70
2018-09-25T14:22:21.873Z,27.70
2018-09-25T14:24:55.794Z,27.60
2018-09-25T14:27:30.380Z,27.50
2018-09-25T14:30:04.452Z,27.40
2018-09-25T14:32:39.102Z,27.30
2018-09-25T14:35:14.329Z,27.40
2018-09-25T14:37:48.289Z,27.30
2018-09-25T14:40:22.435Z,27.40
2018-09-25T14:42:56.528Z,27.40
2018-09-25T14:45:30.473Z,27.30
2018-09-25T14:48:04.428Z,27.30
2018-09-25T14:50:39.207Z,27.30
2018-09-25T14:53:13.200Z,27.30
2018-09-25T14:55:47.316Z,27.20
2018-09-25T14:58:21.211Z,27.10
2018-09-25T15:00:55.366Z,27.10
2018-09-25T15:03:29.374Z,27.00
2018-09-25T15:06:03.468Z,27.00
2018-09-25T15:08:37.481Z,26.90
2018-09-25T15:11:11.571Z,26.90
2018-09-25T15:13:45.509Z,26.90
2018-09-25T15:16:19.416Z,26.90
2018-09-25T15:18:53.380Z,26.90
2018-09-25T15:21:27.472Z,26.90
2018-09-25T15:24:01.506Z,26.80
2018-09-25T15:26:36.153Z,26.80
2018-09-25T15:29:10.119Z,26.80
2018-09-25T15:31:44.048Z,26.80
2018-09-25T15:34:18.037Z,26.80
2018-09-25T15:36:52.164Z,26.90
2018-09-25T15:39:26.279Z,26.80
2018-09-25T15:42:01.596Z,26.80
2018-09-25T15:44:35.486Z,26.70
2018-09-25T15:47:10.200Z,26.70
2018-09-25T15:49:44.240Z,26.80
2018-09-25T15:52:18.308Z,26.80
2018-09-25T15:54:52.173Z,26.80
2018-09-25T15:57:27.052Z,26.80
2018-09-25T16:00:01.002Z,26.70
2018-09-25T16:02:35.440Z,26.70
2018-09-25T16:05:09.491Z,26.60
2018-09-25T16:07:43.561Z,26.50
2018-09-25T16:10:17.676Z,26.50
2018-09-25T16:12:51.752Z,26.50
2018-09-25T16:15:25.702Z,26.40
2018-09-25T16:17:59.872Z,26.30
2018-09-25T16:20:34.005Z,26.20
2018-09-25T16:23:08.008Z,26.00
2018-09-25T16:25:42.069Z,25.90
2018-09-25T16:28:16.027Z,25.80
2018-09-25T16:30:50.132Z,25.70
2018-09-25T16:33:24.256Z,25.50
2018-09-25T16:35:58.211Z,25.40
2018-09-25T16:38:32.336Z,25.40
2018-09-25T16:41:06.187Z,25.30
2018-09-25T16:43:40.657Z,25.20
2018-09-25T16:46:14.632Z,25.20
2018-09-25T16:48:48.776Z,25.10
2018-09-25T16:51:22.660Z,25.00
2018-09-25T16:53:56.624Z,24.90
2018-09-25T16:56:30.672Z,24.90
2018-09-25T16:59:04.763Z,24.80
2018-09-25T17:01:38.622Z,24.80
2018-09-25T17:04:12.696Z,24.70
2018-09-25T17:06:46.784Z,24.60
2018-09-25T17:09:20.921Z,24.50
2018-09-25T17:11:54.907Z,24.40
2018-09-25T17:18:21.676Z,24.30
2018-09-25T17:20:55.610Z,24.20
2018-09-25T17:23:29.468Z,24.10
2018-09-25T17:26:03.532Z,24.00
2018-09-25T17:28:37.620Z,23.90
2018-09-25T17:31:11.796Z,23.90
2018-09-25T17:33:45.771Z,23.80
2018-09-25T17:36:20.348Z,23.70
2018-09-25T17:38:54.468Z,23.60
2018-09-25T17:41:28.528Z,23.60
2018-09-25T17:44:02.568Z,23.50
2018-09-25T17:46:37.016Z,23.40
2018-09-25T17:49:11.845Z,23.30
2018-09-25T17:51:45.956Z,23.30
2018-09-25T17:54:19.784Z,23.20
2018-09-25T17:56:53.772Z,23.10
2018-09-25T17:59:27.616Z,23.00
2018-09-25T18:02:01.702Z,22.90
2018-09-25T18:04:35.727Z,22.90
2018-09-25T18:07:09.875Z,22.80
2018-09-25T18:09:43.832Z,22.70
2018-09-25T18:12:17.832Z,22.70
2018-09-25T18:14:52.216Z,22.60
2018-09-25T18:17:26.068Z,22.50
2018-09-25T18:19:59.904Z,22.50
2018-09-25T18:22:34.169Z,22.40
2018-09-25T18:25:08.211Z,22.30
2018-09-25T18:27:42.375Z,22.20
2018-09-25T18:30:16.796Z,22.10
2018-09-25T18:32:50.721Z,22.00
2018-09-25T18:35:24.800Z,22.00
2018-09-25T18:37:58.872Z,21.90
2018-09-25T18:40:32.873Z,21.80
2018-09-25T18:43:06.825Z,21.70
2018-09-25T18:45:40.645Z,21.50
2018-09-25T18:48:14.705Z,21.40
2018-09-25T18:50:50.690Z,21.20
2018-09-25T18:53:24.600Z,21.10
2018-09-25T18:55:58.621Z,21.00
2018-09-25T18:58:32.636Z,21.00
2018-09-25T19:01:06.710Z,20.90
2018-09-25T19:03:40.814Z,20.90
2018-09-25T19:06:14.707Z,20.90
2018-09-25T19:08:48.736Z,20.80
2018-09-25T19:11:22.878Z,20.60
2018-09-25T19:13:57.080Z,20.50
2018-09-25T19:16:31.199Z,20.50
2018-09-25T19:19:05.216Z,20.40
2018-09-25T19:21:39.361Z,20.40
2018-09-25T19:24:13.542Z,20.40
2018-09-25T19:26:47.663Z,20.30
2018-09-25T19:29:21.528Z,20.30
2018-09-25T19:31:59.869Z,20.30
2018-09-25T19:34:34.024Z,20.30
2018-09-25T19:37:07.913Z,20.20
2018-09-25T19:39:41.789Z,20.00
2018-09-25T19:42:15.921Z,19.90
2018-09-25T19:44:50.089Z,19.70
2018-09-25T19:47:24.132Z,19.60
2018-09-25T19:49:58.074Z,19.70
2018-09-25T19:52:32.215Z,19.70
2018-09-25T19:55:06.204Z,19.60
2018-09-25T19:57:40.180Z,19.50
2018-09-25T20:00:14.035Z,19.40
2018-09-25T20:02:48.172Z,19.30
2018-09-25T20:05:22.052Z,19.10
2018-09-25T20:07:56.051Z,19.00
2018-09-25T20:10:31.191Z,18.90
2018-09-25T20:13:06.079Z,18.80
2018-09-25T20:15:40.133Z,18.60
2018-09-25T20:18:14.172Z,18.70
2018-09-25T20:20:48.372Z,18.60
2018-09-25T20:23:22.292Z,18.50
2018-09-25T20:25:56.292Z,18.50
2018-09-25T20:28:30.428Z,18.40
2018-09-25T20:31:04.415Z,18.40
2018-09-25T20:33:38.281Z,18.30
2018-09-25T20:36:12.540Z,18.20
2018-09-25T20:38:46.511Z,18.10
2018-09-25T20:41:20.498Z,18.10
2018-09-25T20:43:54.396Z,18.10
2018-09-25T20:46:28.333Z,18.00
2018-09-25T20:49:02.297Z,18.00
2018-09-25T20:51:36.444Z,17.90
2018-09-25T20:54:10.464Z,17.80
2018-09-25T20:56:44.455Z,17.70
2018-09-25T20:59:18.434Z,17.60
2018-09-25T21:01:52.348Z,17.50
2018-09-25T21:04:26.352Z,17.50
2018-09-25T21:07:00.548Z,17.40
2018-09-25T21:09:34.537Z,17.40
2018-09-25T21:12:08.692Z,17.30
2018-09-25T21:14:42.620Z,17.40
2018-09-25T21:17:16.658Z,17.30
2018-09-25T21:19:50.728Z,17.20
2018-09-25T21:22:24.657Z,17.20
2018-09-25T21:24:59.692Z,17.10
2018-09-25T21:27:33.628Z,17.10
2018-09-25T21:30:07.708Z,17.10
2018-09-25T21:32:41.759Z,17.00
2018-09-25T21:35:15.720Z,17.00
2018-09-25T21:37:50.692Z,16.90
2018-09-25T21:40:24.600Z,16.80
2018-09-25T21:42:58.597Z,16.80
2018-09-25T21:45:32.559Z,16.80
2018-09-25T21:48:06.503Z,16.70
2018-09-25T21:50:40.385Z,16.70
2018-09-25T21:53:14.417Z,16.70
2018-09-25T21:55:48.484Z,16.70
2018-09-25T21:58:22.542Z,16.70
2018-09-25T22:00:56.515Z,16.70
2018-09-25T22:03:30.512Z,16.70
2018-09-25T22:06:04.500Z,16.70
2018-09-25T22:08:38.503Z,16.70
2018-09-25T22:11:12.580Z,16.70
2018-09-25T22:13:46.528Z,16.70
2018-09-25T22:16:20.412Z,16.70
2018-09-25T22:18:54.571Z,16.70
2018-09-25T22:21:28.516Z,16.50
2018-09-25T22:24:02.604Z,16.50
2018-09-25T22:26:36.552Z,16.40
2018-09-25T22:29:10.664Z,16.40
2018-09-25T22:31:44.733Z,16.40
2018-09-25T22:34:18.908Z,16.50
2018-09-25T22:36:53.277Z,16.40
2018-09-25T22:39:27.442Z,16.40
2018-09-25T22:42:01.472Z,16.40
2018-09-25T22:44:35.596Z,16.20
2018-09-25T22:47:09.836Z,16.20
2018-09-25T22:49:43.828Z,16.20
2018-09-25T22:52:17.653Z,16.20
2018-09-25T22:54:51.611Z,16.20
2018-09-25T22:57:29.076Z,16.10
2018-09-25T23:00:03.124Z,16.10
2018-09-25T23:02:37.176Z,16.10
2018-09-25T23:05:11.232Z,16.20
2018-09-25T23:07:45.368Z,16.10
2018-09-25T23:10:19.525Z,16.00
2018-09-25T23:12:53.401Z,15.90
2018-09-25T23:15:27.368Z,15.90
2018-09-25T23:18:01.380Z,15.80
2018-09-25T23:20:35.509Z,15.80
2018-09-25T23:23:09.638Z,15.90
2018-09-25T23:25:43.690Z,15.90
2018-09-25T23:28:17.800Z,15.90
2018-09-25T23:30:51.832Z,15.90
2018-09-25T23:33:25.710Z,15.80
2018-09-25T23:35:59.679Z,15.70
2018-09-25T23:38:33.700Z,15.70
2018-09-25T23:41:07.668Z,15.60
2018-09-25T23:43:41.520Z,15.50
2018-09-25T23:46:15.559Z,15.50
2018-09-25T23:48:52.371Z,15.40
2018-09-25T23:51:55.404Z,15.50
2018-09-25T23:56:34.027Z,15.50
2018-09-25T23:59:08.640Z,15.40
